sensor_id;sensor_type;location;lat;lon;timestamp;P1;durP1;ratioP1;P2;durP2;ratioP2
10295;SDS011;5193;51.032;6.356;2022-10-17T00:00:15;9.13;;;4.20;;
10295;SDS011;5193;51.032;6.356;2022-10-17T00:02:41;7.60;;;4.07;;
10295;SDS011;5193;51.032;6.356;2022-10-17T00:05:06;4.63;;;3.80;;
10295;SDS011;5193;51.032;6.356;2022-10-17T00:07:32;4.47;;;4.00;;
10295;SDS011;5193;51.032;6.356;2022-10-17T00:09:58;7.73;;;3.77;;
10295;SDS011;5193;51.032;6.356;2022-10-17T00:12:23;9.10;;;4.30;;
10295;SDS011;5193;51.032;6.356;2022-10-17T00:14:49;5.53;;;3.67;;
10295;SDS011;5193;51.032;6.356;2022-10-17T00:17:14;8.73;;;3.67;;
10295;SDS011;5193;51.032;6.356;2022-10-17T00:19:40;10.43;;;4.00;;
10295;SDS011;5193;51.032;6.356;2022-10-17T00:22:06;4.70;;;3.53;;
10295;SDS011;5193;51.032;6.356;2022-10-17T00:24:31;7.73;;;3.33;;
10295;SDS011;5193;51.032;6.356;2022-10-17T00:26:57;4.57;;;3.70;;
10295;SDS011;5193;51.032;6.356;2022-10-17T00:29:23;7.80;;;4.37;;
10295;SDS011;5193;51.032;6.356;2022-10-17T00:31:48;12.87;;;4.37;;
10295;SDS011;5193;51.032;6.356;2022-10-17T00:34:14;4.73;;;3.77;;
10295;SDS011;5193;51.032;6.356;2022-10-17T00:36:40;5.10;;;3.80;;
10295;SDS011;5193;51.032;6.356;2022-10-17T00:39:05;5.63;;;3.30;;
10295;SDS011;5193;51.032;6.356;2022-10-17T00:41:32;5.57;;;4.10;;
10295;SDS011;5193;51.032;6.356;2022-10-17T00:43:59;6.43;;;4.20;;
10295;SDS011;5193;51.032;6.356;2022-10-17T00:46:30;7.00;;;3.93;;
10295;SDS011;5193;51.032;6.356;2022-10-17T00:48:59;7.20;;;4.40;;
10295;SDS011;5193;51.032;6.356;2022-10-17T00:51:36;8.97;;;4.30;;
10295;SDS011;5193;51.032;6.356;2022-10-17T00:54:02;5.43;;;4.00;;
10295;SDS011;5193;51.032;6.356;2022-10-17T00:56:29;7.13;;;4.10;;
10295;SDS011;5193;51.032;6.356;2022-10-17T00:58:56;6.53;;;4.03;;
10295;SDS011;5193;51.032;6.356;2022-10-17T01:01:22;8.00;;;4.00;;
10295;SDS011;5193;51.032;6.356;2022-10-17T01:03:47;8.40;;;4.23;;
10295;SDS011;5193;51.032;6.356;2022-10-17T01:06:13;4.33;;;3.90;;
10295;SDS011;5193;51.032;6.356;2022-10-17T01:08:39;6.70;;;3.90;;
10295;SDS011;5193;51.032;6.356;2022-10-17T01:16:44;4.70;;;4.13;;
10295;SDS011;5193;51.032;6.356;2022-10-17T01:22:10;13.07;;;5.13;;
10295;SDS011;5193;51.032;6.356;2022-10-17T01:30:18;5.93;;;4.40;;
10295;SDS011;5193;51.032;6.356;2022-10-17T01:33:23;7.77;;;4.43;;
10295;SDS011;5193;51.032;6.356;2022-10-17T01:38:45;6.60;;;4.87;;
10295;SDS011;5193;51.032;6.356;2022-10-17T01:41:25;10.13;;;5.17;;
10295;SDS011;5193;51.032;6.356;2022-10-17T01:43:57;5.50;;;4.60;;
10295;SDS011;5193;51.032;6.356;2022-10-17T01:46:36;12.90;;;4.20;;
10295;SDS011;5193;51.032;6.356;2022-10-17T01:49:04;4.87;;;3.73;;
10295;SDS011;5193;51.032;6.356;2022-10-17T01:51:34;5.50;;;3.97;;
10295;SDS011;5193;51.032;6.356;2022-10-17T01:54:11;5.57;;;4.33;;
10295;SDS011;5193;51.032;6.356;2022-10-17T01:56:38;5.73;;;4.17;;
10295;SDS011;5193;51.032;6.356;2022-10-17T01:59:14;6.60;;;4.07;;
10295;SDS011;5193;51.032;6.356;2022-10-17T02:01:46;7.87;;;4.50;;
10295;SDS011;5193;51.032;6.356;2022-10-17T02:04:15;6.33;;;4.30;;
10295;SDS011;5193;51.032;6.356;2022-10-17T02:06:41;6.70;;;4.37;;
10295;SDS011;5193;51.032;6.356;2022-10-17T02:09:16;6.03;;;4.10;;
10295;SDS011;5193;51.032;6.356;2022-10-17T02:11:48;5.57;;;3.90;;
10295;SDS011;5193;51.032;6.356;2022-10-17T02:17:41;6.53;;;4.07;;
10295;SDS011;5193;51.032;6.356;2022-10-17T02:20:30;5.40;;;3.53;;
10295;SDS011;5193;51.032;6.356;2022-10-17T02:23:02;7.40;;;3.97;;
10295;SDS011;5193;51.032;6.356;2022-10-17T02:25:37;6.00;;;4.50;;
10295;SDS011;5193;51.032;6.356;2022-10-17T02:31:02;7.77;;;4.23;;
10295;SDS011;5193;51.032;6.356;2022-10-17T02:33:43;6.50;;;4.10;;
10295;SDS011;5193;51.032;6.356;2022-10-17T02:36:14;7.83;;;4.70;;
10295;SDS011;5193;51.032;6.356;2022-10-17T02:38:44;5.50;;;4.23;;
10295;SDS011;5193;51.032;6.356;2022-10-17T02:41:11;10.53;;;4.63;;
10295;SDS011;5193;51.032;6.356;2022-10-17T02:43:39;6.50;;;4.43;;
10295;SDS011;5193;51.032;6.356;2022-10-17T02:46:09;5.43;;;4.20;;
10295;SDS011;5193;51.032;6.356;2022-10-17T02:48:46;5.63;;;4.10;;
10295;SDS011;5193;51.032;6.356;2022-10-17T02:54:01;6.13;;;4.50;;
10295;SDS011;5193;51.032;6.356;2022-10-17T02:56:29;12.07;;;4.53;;
10295;SDS011;5193;51.032;6.356;2022-10-17T02:58:58;5.57;;;4.10;;
10295;SDS011;5193;51.032;6.356;2022-10-17T03:01:27;6.90;;;4.20;;
10295;SDS011;5193;51.032;6.356;2022-10-17T03:04:04;8.87;;;4.30;;
10295;SDS011;5193;51.032;6.356;2022-10-17T03:06:31;5.33;;;3.93;;
10295;SDS011;5193;51.032;6.356;2022-10-17T03:08:57;6.80;;;3.77;;
10295;SDS011;5193;51.032;6.356;2022-10-17T03:11:22;6.10;;;4.17;;
10295;SDS011;5193;51.032;6.356;2022-10-17T03:13:48;4.83;;;3.70;;
10295;SDS011;5193;51.032;6.356;2022-10-17T03:16:13;7.63;;;4.40;;
10295;SDS011;5193;51.032;6.356;2022-10-17T03:18:39;5.90;;;3.87;;
10295;SDS011;5193;51.032;6.356;2022-10-17T03:21:04;5.90;;;4.70;;
10295;SDS011;5193;51.032;6.356;2022-10-17T03:23:30;8.37;;;4.23;;
10295;SDS011;5193;51.032;6.356;2022-10-17T03:25:56;5.47;;;4.20;;
10295;SDS011;5193;51.032;6.356;2022-10-17T03:28:21;9.40;;;3.90;;
10295;SDS011;5193;51.032;6.356;2022-10-17T03:30:47;7.73;;;3.80;;
10295;SDS011;5193;51.032;6.356;2022-10-17T03:33:12;4.37;;;3.97;;
10295;SDS011;5193;51.032;6.356;2022-10-17T03:35:38;7.03;;;4.40;;
10295;SDS011;5193;51.032;6.356;2022-10-17T03:38:04;4.97;;;4.30;;
10295;SDS011;5193;51.032;6.356;2022-10-17T03:40:30;4.43;;;3.87;;
10295;SDS011;5193;51.032;6.356;2022-10-17T03:42:55;6.47;;;4.47;;
10295;SDS011;5193;51.032;6.356;2022-10-17T03:45:21;5.10;;;4.57;;
10295;SDS011;5193;51.032;6.356;2022-10-17T03:47:46;5.37;;;4.20;;
10295;SDS011;5193;51.032;6.356;2022-10-17T03:50:12;8.33;;;4.67;;
10295;SDS011;5193;51.032;6.356;2022-10-17T03:52:38;8.03;;;4.60;;
10295;SDS011;5193;51.032;6.356;2022-10-17T03:55:03;5.10;;;4.33;;
10295;SDS011;5193;51.032;6.356;2022-10-17T03:57:29;7.30;;;4.30;;
10295;SDS011;5193;51.032;6.356;2022-10-17T03:59:55;10.70;;;4.70;;
10295;SDS011;5193;51.032;6.356;2022-10-17T04:02:21;6.33;;;4.90;;
10295;SDS011;5193;51.032;6.356;2022-10-17T04:04:46;6.73;;;4.40;;
10295;SDS011;5193;51.032;6.356;2022-10-17T04:07:12;5.40;;;4.00;;
10295;SDS011;5193;51.032;6.356;2022-10-17T04:09:38;4.47;;;3.70;;
10295;SDS011;5193;51.032;6.356;2022-10-17T04:12:03;5.03;;;4.20;;
10295;SDS011;5193;51.032;6.356;2022-10-17T04:14:29;5.03;;;4.20;;
10295;SDS011;5193;51.032;6.356;2022-10-17T04:16:54;6.83;;;4.13;;
10295;SDS011;5193;51.032;6.356;2022-10-17T04:19:20;9.93;;;4.33;;
10295;SDS011;5193;51.032;6.356;2022-10-17T04:21:46;5.30;;;4.03;;
10295;SDS011;5193;51.032;6.356;2022-10-17T04:24:12;5.47;;;3.87;;
10295;SDS011;5193;51.032;6.356;2022-10-17T04:26:38;11.07;;;4.37;;
10295;SDS011;5193;51.032;6.356;2022-10-17T04:29:04;5.07;;;4.43;;
10295;SDS011;5193;51.032;6.356;2022-10-17T04:31:29;12.10;;;5.13;;
10295;SDS011;5193;51.032;6.356;2022-10-17T04:33:55;8.70;;;4.73;;
10295;SDS011;5193;51.032;6.356;2022-10-17T04:36:21;6.13;;;5.20;;
10295;SDS011;5193;51.032;6.356;2022-10-17T04:38:47;10.33;;;5.27;;
10295;SDS011;5193;51.032;6.356;2022-10-17T04:41:14;6.87;;;5.67;;
10295;SDS011;5193;51.032;6.356;2022-10-17T04:43:41;8.67;;;6.00;;
10295;SDS011;5193;51.032;6.356;2022-10-17T04:46:08;8.43;;;6.47;;
10295;SDS011;5193;51.032;6.356;2022-10-17T04:48:36;9.03;;;5.50;;
10295;SDS011;5193;51.032;6.356;2022-10-17T04:51:04;8.20;;;5.30;;
10295;SDS011;5193;51.032;6.356;2022-10-17T04:53:32;7.93;;;4.90;;
10295;SDS011;5193;51.032;6.356;2022-10-17T04:55:59;11.97;;;5.00;;
10295;SDS011;5193;51.032;6.356;2022-10-17T04:58:27;7.73;;;5.30;;
10295;SDS011;5193;51.032;6.356;2022-10-17T05:00:54;11.23;;;5.00;;
10295;SDS011;5193;51.032;6.356;2022-10-17T05:03:19;8.70;;;5.33;;
10295;SDS011;5193;51.032;6.356;2022-10-17T05:05:45;8.97;;;5.73;;
10295;SDS011;5193;51.032;6.356;2022-10-17T05:08:11;7.70;;;5.53;;
10295;SDS011;5193;51.032;6.356;2022-10-17T05:10:40;11.63;;;5.63;;
10295;SDS011;5193;51.032;6.356;2022-10-17T05:13:07;7.00;;;5.30;;
10295;SDS011;5193;51.032;6.356;2022-10-17T05:15:33;7.87;;;5.87;;
10295;SDS011;5193;51.032;6.356;2022-10-17T05:17:59;6.70;;;5.33;;
10295;SDS011;5193;51.032;6.356;2022-10-17T05:20:25;8.27;;;6.03;;
10295;SDS011;5193;51.032;6.356;2022-10-17T05:22:51;7.67;;;5.63;;
10295;SDS011;5193;51.032;6.356;2022-10-17T05:25:18;9.33;;;6.10;;
10295;SDS011;5193;51.032;6.356;2022-10-17T05:27:44;6.63;;;5.67;;
10295;SDS011;5193;51.032;6.356;2022-10-17T05:30:09;10.13;;;6.07;;
10295;SDS011;5193;51.032;6.356;2022-10-17T05:32:35;9.27;;;5.70;;
10295;SDS011;5193;51.032;6.356;2022-10-17T05:35:01;6.40;;;5.60;;
10295;SDS011;5193;51.032;6.356;2022-10-17T05:37:28;8.60;;;5.23;;
10295;SDS011;5193;51.032;6.356;2022-10-17T05:39:55;8.83;;;5.50;;
10295;SDS011;5193;51.032;6.356;2022-10-17T05:42:20;8.33;;;4.90;;
10295;SDS011;5193;51.032;6.356;2022-10-17T05:44:46;7.60;;;4.93;;
10295;SDS011;5193;51.032;6.356;2022-10-17T05:47:11;6.77;;;4.90;;
10295;SDS011;5193;51.032;6.356;2022-10-17T05:49:37;9.97;;;5.00;;
10295;SDS011;5193;51.032;6.356;2022-10-17T05:52:03;7.07;;;4.90;;
10295;SDS011;5193;51.032;6.356;2022-10-17T05:54:28;7.10;;;5.73;;
10295;SDS011;5193;51.032;6.356;2022-10-17T05:56:54;9.70;;;5.03;;
10295;SDS011;5193;51.032;6.356;2022-10-17T05:59:20;8.17;;;5.37;;
10295;SDS011;5193;51.032;6.356;2022-10-17T06:01:46;10.00;;;5.97;;
10295;SDS011;5193;51.032;6.356;2022-10-17T06:04:12;7.43;;;5.53;;
10295;SDS011;5193;51.032;6.356;2022-10-17T06:06:38;9.03;;;5.37;;
10295;SDS011;5193;51.032;6.356;2022-10-17T06:09:04;14.57;;;6.00;;
10295;SDS011;5193;51.032;6.356;2022-10-17T06:11:31;8.40;;;5.73;;
10295;SDS011;5193;51.032;6.356;2022-10-17T06:13:57;6.77;;;5.30;;
10295;SDS011;5193;51.032;6.356;2022-10-17T06:16:23;8.57;;;5.47;;
10295;SDS011;5193;51.032;6.356;2022-10-17T06:18:48;9.97;;;6.13;;
10295;SDS011;5193;51.032;6.356;2022-10-17T06:21:22;9.07;;;6.07;;
10295;SDS011;5193;51.032;6.356;2022-10-17T06:23:49;11.27;;;6.17;;
10295;SDS011;5193;51.032;6.356;2022-10-17T06:26:15;8.00;;;5.47;;
10295;SDS011;5193;51.032;6.356;2022-10-17T06:28:40;10.17;;;5.30;;
10295;SDS011;5193;51.032;6.356;2022-10-17T06:31:07;6.13;;;5.30;;
10295;SDS011;5193;51.032;6.356;2022-10-17T06:33:34;9.30;;;5.63;;
10295;SDS011;5193;51.032;6.356;2022-10-17T06:36:01;12.27;;;6.40;;
10295;SDS011;5193;51.032;6.356;2022-10-17T06:38:27;9.80;;;6.20;;
10295;SDS011;5193;51.032;6.356;2022-10-17T06:40:52;7.77;;;5.47;;
10295;SDS011;5193;51.032;6.356;2022-10-17T06:43:18;8.90;;;5.80;;
10295;SDS011;5193;51.032;6.356;2022-10-17T06:45:44;7.43;;;5.53;;
10295;SDS011;5193;51.032;6.356;2022-10-17T06:48:11;14.17;;;5.47;;
10295;SDS011;5193;51.032;6.356;2022-10-17T06:50:37;8.10;;;5.50;;
10295;SDS011;5193;51.032;6.356;2022-10-17T06:53:03;10.43;;;5.90;;
10295;SDS011;5193;51.032;6.356;2022-10-17T06:55:29;8.33;;;6.30;;
10295;SDS011;5193;51.032;6.356;2022-10-17T06:57:55;8.97;;;6.17;;
10295;SDS011;5193;51.032;6.356;2022-10-17T07:00:21;10.67;;;7.17;;
10295;SDS011;5193;51.032;6.356;2022-10-17T07:02:47;8.80;;;6.43;;
10295;SDS011;5193;51.032;6.356;2022-10-17T07:05:13;12.40;;;7.20;;
10295;SDS011;5193;51.032;6.356;2022-10-17T07:07:39;8.80;;;7.00;;
10295;SDS011;5193;51.032;6.356;2022-10-17T07:10:04;12.60;;;7.17;;
10295;SDS011;5193;51.032;6.356;2022-10-17T07:12:33;11.90;;;7.30;;
10295;SDS011;5193;51.032;6.356;2022-10-17T07:14:59;11.80;;;7.00;;
10295;SDS011;5193;51.032;6.356;2022-10-17T07:17:25;9.80;;;6.77;;
10295;SDS011;5193;51.032;6.356;2022-10-17T07:19:50;10.93;;;7.10;;
10295;SDS011;5193;51.032;6.356;2022-10-17T07:22:16;18.07;;;6.70;;
10295;SDS011;5193;51.032;6.356;2022-10-17T07:24:41;11.47;;;6.37;;
10295;SDS011;5193;51.032;6.356;2022-10-17T07:27:07;11.70;;;6.50;;
10295;SDS011;5193;51.032;6.356;2022-10-17T07:29:33;11.73;;;6.63;;
10295;SDS011;5193;51.032;6.356;2022-10-17T07:31:58;14.60;;;6.73;;
10295;SDS011;5193;51.032;6.356;2022-10-17T07:34:24;14.17;;;6.77;;
10295;SDS011;5193;51.032;6.356;2022-10-17T07:36:51;15.03;;;6.87;;
10295;SDS011;5193;51.032;6.356;2022-10-17T07:39:17;10.47;;;6.60;;
10295;SDS011;5193;51.032;6.356;2022-10-17T07:41:43;11.23;;;6.17;;
10295;SDS011;5193;51.032;6.356;2022-10-17T07:44:08;12.37;;;6.63;;
10295;SDS011;5193;51.032;6.356;2022-10-17T07:46:34;12.67;;;5.87;;
10295;SDS011;5193;51.032;6.356;2022-10-17T07:48:59;10.63;;;6.33;;
10295;SDS011;5193;51.032;6.356;2022-10-17T07:51:25;14.17;;;6.37;;
10295;SDS011;5193;51.032;6.356;2022-10-17T07:53:51;11.83;;;6.50;;
10295;SDS011;5193;51.032;6.356;2022-10-17T07:56:17;9.17;;;6.10;;
10295;SDS011;5193;51.032;6.356;2022-10-17T07:58:43;11.73;;;5.50;;
10295;SDS011;5193;51.032;6.356;2022-10-17T08:01:09;7.93;;;5.73;;
10295;SDS011;5193;51.032;6.356;2022-10-17T08:03:45;9.30;;;5.93;;
10295;SDS011;5193;51.032;6.356;2022-10-17T08:06:13;13.90;;;5.77;;
10295;SDS011;5193;51.032;6.356;2022-10-17T08:08:40;10.00;;;5.20;;
10295;SDS011;5193;51.032;6.356;2022-10-17T08:11:27;13.17;;;5.47;;
10295;SDS011;5193;51.032;6.356;2022-10-17T08:13:52;6.97;;;5.00;;
10295;SDS011;5193;51.032;6.356;2022-10-17T08:16:18;9.97;;;5.13;;
10295;SDS011;5193;51.032;6.356;2022-10-17T08:18:43;8.93;;;4.53;;
10295;SDS011;5193;51.032;6.356;2022-10-17T08:21:10;7.53;;;5.27;;
10295;SDS011;5193;51.032;6.356;2022-10-17T08:23:37;12.67;;;5.97;;
10295;SDS011;5193;51.032;6.356;2022-10-17T08:26:04;13.93;;;5.50;;
10295;SDS011;5193;51.032;6.356;2022-10-17T08:28:33;9.27;;;5.33;;
10295;SDS011;5193;51.032;6.356;2022-10-17T08:31:07;8.50;;;4.90;;
10295;SDS011;5193;51.032;6.356;2022-10-17T08:33:34;8.00;;;4.37;;
10295;SDS011;5193;51.032;6.356;2022-10-17T08:36:00;13.03;;;5.00;;
10295;SDS011;5193;51.032;6.356;2022-10-17T08:38:27;11.70;;;4.83;;
10295;SDS011;5193;51.032;6.356;2022-10-17T08:40:55;10.17;;;4.93;;
10295;SDS011;5193;51.032;6.356;2022-10-17T08:43:48;30.23;;;4.87;;
10295;SDS011;5193;51.032;6.356;2022-10-17T08:46:09;6.40;;;3.43;;
10295;SDS011;5193;51.032;6.356;2022-10-17T08:48:37;10.40;;;4.07;;
10295;SDS011;5193;51.032;6.356;2022-10-17T08:51:11;12.30;;;5.43;;
10295;SDS011;5193;51.032;6.356;2022-10-17T08:54:04;9.17;;;4.07;;
10295;SDS011;5193;51.032;6.356;2022-10-17T08:56:42;10.63;;;4.30;;
10295;SDS011;5193;51.032;6.356;2022-10-17T08:59:16;7.43;;;4.87;;
10295;SDS011;5193;51.032;6.356;2022-10-17T09:10:15;4.57;;;4.07;;
10295;SDS011;5193;51.032;6.356;2022-10-17T09:16:27;8.27;;;3.37;;
10295;SDS011;5193;51.032;6.356;2022-10-17T09:18:57;9.90;;;3.90;;
10295;SDS011;5193;51.032;6.356;2022-10-17T09:21:38;4.83;;;3.57;;
10295;SDS011;5193;51.032;6.356;2022-10-17T09:24:05;4.90;;;3.27;;
10295;SDS011;5193;51.032;6.356;2022-10-17T09:26:40;4.83;;;2.87;;
10295;SDS011;5193;51.032;6.356;2022-10-17T09:29:16;5.87;;;3.23;;
10295;SDS011;5193;51.032;6.356;2022-10-17T09:31:51;7.47;;;3.30;;
10295;SDS011;5193;51.032;6.356;2022-10-17T09:34:30;6.40;;;2.93;;
10295;SDS011;5193;51.032;6.356;2022-10-17T09:36:57;4.53;;;3.13;;
10295;SDS011;5193;51.032;6.356;2022-10-17T09:39:24;7.53;;;3.30;;
10295;SDS011;5193;51.032;6.356;2022-10-17T09:41:56;6.30;;;3.17;;
10295;SDS011;5193;51.032;6.356;2022-10-17T09:49:38;7.37;;;2.70;;
10295;SDS011;5193;51.032;6.356;2022-10-17T09:52:16;7.43;;;2.93;;
10295;SDS011;5193;51.032;6.356;2022-10-17T09:54:49;6.20;;;2.80;;
10295;SDS011;5193;51.032;6.356;2022-10-17T09:57:24;11.13;;;2.87;;
10295;SDS011;5193;51.032;6.356;2022-10-17T10:02:27;5.80;;;3.00;;
10295;SDS011;5193;51.032;6.356;2022-10-17T10:04:58;8.80;;;2.87;;
10295;SDS011;5193;51.032;6.356;2022-10-17T10:07:27;4.53;;;3.07;;
10295;SDS011;5193;51.032;6.356;2022-10-17T10:09:54;4.00;;;3.10;;
10295;SDS011;5193;51.032;6.356;2022-10-17T10:12:25;5.93;;;3.30;;
10295;SDS011;5193;51.032;6.356;2022-10-17T10:14:52;3.77;;;2.50;;
10295;SDS011;5193;51.032;6.356;2022-10-17T10:17:26;7.23;;;2.63;;
10295;SDS011;5193;51.032;6.356;2022-10-17T10:19:52;5.83;;;3.00;;
10295;SDS011;5193;51.032;6.356;2022-10-17T10:22:18;5.30;;;2.90;;
10295;SDS011;5193;51.032;6.356;2022-10-17T10:27:41;6.90;;;2.80;;
10295;SDS011;5193;51.032;6.356;2022-10-17T10:30:18;7.30;;;2.77;;
10295;SDS011;5193;51.032;6.356;2022-10-17T10:32:51;5.63;;;2.60;;
10295;SDS011;5193;51.032;6.356;2022-10-17T10:35:20;5.10;;;3.03;;
10295;SDS011;5193;51.032;6.356;2022-10-17T10:37:50;5.10;;;2.90;;
10295;SDS011;5193;51.032;6.356;2022-10-17T10:40:26;8.27;;;2.70;;
10295;SDS011;5193;51.032;6.356;2022-10-17T10:42:57;4.03;;;2.90;;
10295;SDS011;5193;51.032;6.356;2022-10-17T10:45:28;4.70;;;2.70;;
10295;SDS011;5193;51.032;6.356;2022-10-17T10:48:18;5.20;;;2.70;;
10295;SDS011;5193;51.032;6.356;2022-10-17T10:56:19;4.60;;;2.50;;
10295;SDS011;5193;51.032;6.356;2022-10-17T11:01:41;4.17;;;2.87;;
10295;SDS011;5193;51.032;6.356;2022-10-17T11:06:59;8.53;;;2.93;;
10295;SDS011;5193;51.032;6.356;2022-10-17T11:09:39;9.73;;;4.13;;
10295;SDS011;5193;51.032;6.356;2022-10-17T11:12:43;6.43;;;2.70;;
10295;SDS011;5193;51.032;6.356;2022-10-17T11:15:19;5.37;;;3.07;;
10295;SDS011;5193;51.032;6.356;2022-10-17T11:17:58;8.87;;;2.70;;
10295;SDS011;5193;51.032;6.356;2022-10-17T11:20:43;5.47;;;3.03;;
10295;SDS011;5193;51.032;6.356;2022-10-17T11:23:27;3.87;;;2.80;;
10295;SDS011;5193;51.032;6.356;2022-10-17T11:26:02;6.90;;;2.83;;
10295;SDS011;5193;51.032;6.356;2022-10-17T11:28:32;3.03;;;2.70;;
10295;SDS011;5193;51.032;6.356;2022-10-17T11:31:03;9.23;;;3.00;;
10295;SDS011;5193;51.032;6.356;2022-10-17T11:36:08;4.67;;;2.70;;
10295;SDS011;5193;51.032;6.356;2022-10-17T11:41:14;3.60;;;2.60;;
10295;SDS011;5193;51.032;6.356;2022-10-17T11:43:52;6.40;;;2.70;;
10295;SDS011;5193;51.032;6.356;2022-10-17T11:46:22;4.40;;;2.60;;
10295;SDS011;5193;51.032;6.356;2022-10-17T11:48:56;3.23;;;2.80;;
10295;SDS011;5193;51.032;6.356;2022-10-17T11:51:28;6.63;;;2.70;;
10295;SDS011;5193;51.032;6.356;2022-10-17T11:54:03;4.47;;;2.50;;
10295;SDS011;5193;51.032;6.356;2022-10-17T11:56:44;3.97;;;2.60;;
10295;SDS011;5193;51.032;6.356;2022-10-17T12:02:10;5.73;;;2.90;;
10295;SDS011;5193;51.032;6.356;2022-10-17T12:16:41;4.63;;;2.50;;
10295;SDS011;5193;51.032;6.356;2022-10-17T12:19:10;4.47;;;2.20;;
10295;SDS011;5193;51.032;6.356;2022-10-17T12:21:54;6.37;;;3.07;;
10295;SDS011;5193;51.032;6.356;2022-10-17T12:24:42;7.17;;;2.60;;
10295;SDS011;5193;51.032;6.356;2022-10-17T12:30:00;7.13;;;2.40;;
10295;SDS011;5193;51.032;6.356;2022-10-17T12:32:28;7.83;;;2.07;;
10295;SDS011;5193;51.032;6.356;2022-10-17T12:34:55;8.77;;;2.40;;
10295;SDS011;5193;51.032;6.356;2022-10-17T12:42:58;6.37;;;2.60;;
10295;SDS011;5193;51.032;6.356;2022-10-17T12:45:43;3.27;;;2.40;;
10295;SDS011;5193;51.032;6.356;2022-10-17T12:56:20;7.20;;;2.97;;
10295;SDS011;5193;51.032;6.356;2022-10-17T12:58:55;7.37;;;2.67;;
10295;SDS011;5193;51.032;6.356;2022-10-17T13:01:30;5.87;;;2.10;;
10295;SDS011;5193;51.032;6.356;2022-10-17T13:03:57;6.80;;;2.43;;
10295;SDS011;5193;51.032;6.356;2022-10-17T13:06:30;5.77;;;2.20;;
10295;SDS011;5193;51.032;6.356;2022-10-17T13:09:47;4.47;;;2.20;;
10295;SDS011;5193;51.032;6.356;2022-10-17T13:11:55;6.13;;;2.17;;
10295;SDS011;5193;51.032;6.356;2022-10-17T13:14:23;3.70;;;2.17;;
10295;SDS011;5193;51.032;6.356;2022-10-17T13:19:22;5.97;;;2.47;;
10295;SDS011;5193;51.032;6.356;2022-10-17T13:21:55;3.50;;;2.17;;
10295;SDS011;5193;51.032;6.356;2022-10-17T13:26:54;7.90;;;2.60;;
10295;SDS011;5193;51.032;6.356;2022-10-17T13:29:21;5.73;;;2.47;;
10295;SDS011;5193;51.032;6.356;2022-10-17T13:31:51;6.43;;;2.57;;
10295;SDS011;5193;51.032;6.356;2022-10-17T13:34:22;6.00;;;2.20;;
10295;SDS011;5193;51.032;6.356;2022-10-17T13:36:49;5.90;;;2.20;;
10295;SDS011;5193;51.032;6.356;2022-10-17T13:39:22;3.50;;;2.03;;
10295;SDS011;5193;51.032;6.356;2022-10-17T13:41:49;7.37;;;2.60;;
10295;SDS011;5193;51.032;6.356;2022-10-17T13:44:18;7.93;;;2.40;;
10295;SDS011;5193;51.032;6.356;2022-10-17T13:46:46;5.33;;;2.20;;
10295;SDS011;5193;51.032;6.356;2022-10-17T13:49:22;6.43;;;2.43;;
10295;SDS011;5193;51.032;6.356;2022-10-17T13:51:55;4.70;;;2.50;;
10295;SDS011;5193;51.032;6.356;2022-10-17T13:54:39;2.90;;;1.87;;
10295;SDS011;5193;51.032;6.356;2022-10-17T13:59:58;8.63;;;2.27;;
10295;SDS011;5193;51.032;6.356;2022-10-17T14:02:26;9.47;;;2.57;;
10295;SDS011;5193;51.032;6.356;2022-10-17T14:05:03;8.27;;;2.83;;
10295;SDS011;5193;51.032;6.356;2022-10-17T14:10:23;5.43;;;2.30;;
10295;SDS011;5193;51.032;6.356;2022-10-17T14:12:57;7.53;;;2.27;;
10295;SDS011;5193;51.032;6.356;2022-10-17T14:15:25;10.17;;;2.40;;
10295;SDS011;5193;51.032;6.356;2022-10-17T14:17:55;6.97;;;2.53;;
10295;SDS011;5193;51.032;6.356;2022-10-17T14:20:23;4.70;;;2.53;;
10295;SDS011;5193;51.032;6.356;2022-10-17T14:22:50;7.90;;;2.70;;
10295;SDS011;5193;51.032;6.356;2022-10-17T14:30:41;5.93;;;2.37;;
10295;SDS011;5193;51.032;6.356;2022-10-17T14:33:22;4.37;;;2.53;;
10295;SDS011;5193;51.032;6.356;2022-10-17T14:35:54;8.43;;;2.37;;
10295;SDS011;5193;51.032;6.356;2022-10-17T14:38:22;7.00;;;2.70;;
10295;SDS011;5193;51.032;6.356;2022-10-17T14:40:52;7.37;;;2.57;;
10295;SDS011;5193;51.032;6.356;2022-10-17T14:43:24;5.43;;;3.07;;
10295;SDS011;5193;51.032;6.356;2022-10-17T14:45:52;8.97;;;2.60;;
10295;SDS011;5193;51.032;6.356;2022-10-17T14:48:22;12.60;;;3.10;;
10295;SDS011;5193;51.032;6.356;2022-10-17T14:51:05;8.10;;;2.90;;
10295;SDS011;5193;51.032;6.356;2022-10-17T14:53:39;6.37;;;2.80;;
10295;SDS011;5193;51.032;6.356;2022-10-17T14:56:33;7.93;;;3.20;;
10295;SDS011;5193;51.032;6.356;2022-10-17T14:59:06;7.37;;;3.53;;
10295;SDS011;5193;51.032;6.356;2022-10-17T15:01:34;7.53;;;2.97;;
10295;SDS011;5193;51.032;6.356;2022-10-17T15:03:59;5.77;;;2.70;;
10295;SDS011;5193;51.032;6.356;2022-10-17T15:06:28;4.10;;;2.80;;
10295;SDS011;5193;51.032;6.356;2022-10-17T15:08:57;6.40;;;2.77;;
10295;SDS011;5193;51.032;6.356;2022-10-17T15:11:23;4.43;;;2.90;;
10295;SDS011;5193;51.032;6.356;2022-10-17T15:13:49;9.23;;;3.10;;
10295;SDS011;5193;51.032;6.356;2022-10-17T15:16:19;6.23;;;2.70;;
10295;SDS011;5193;51.032;6.356;2022-10-17T15:18:47;7.43;;;3.30;;
10295;SDS011;5193;51.032;6.356;2022-10-17T15:21:14;4.17;;;3.27;;
10295;SDS011;5193;51.032;6.356;2022-10-17T15:23:41;7.20;;;3.73;;
10295;SDS011;5193;51.032;6.356;2022-10-17T15:26:11;5.67;;;3.07;;
10295;SDS011;5193;51.032;6.356;2022-10-17T15:28:51;7.17;;;3.50;;
10295;SDS011;5193;51.032;6.356;2022-10-17T15:31:18;8.77;;;3.30;;
10295;SDS011;5193;51.032;6.356;2022-10-17T15:33:45;6.33;;;3.20;;
10295;SDS011;5193;51.032;6.356;2022-10-17T15:36:24;14.47;;;3.87;;
10295;SDS011;5193;51.032;6.356;2022-10-17T15:38:53;5.17;;;2.90;;
10295;SDS011;5193;51.032;6.356;2022-10-17T15:41:20;9.20;;;3.53;;
10295;SDS011;5193;51.032;6.356;2022-10-17T15:43:48;8.87;;;3.20;;
10295;SDS011;5193;51.032;6.356;2022-10-17T15:46:16;5.37;;;3.43;;
10295;SDS011;5193;51.032;6.356;2022-10-17T15:48:45;5.47;;;3.03;;
10295;SDS011;5193;51.032;6.356;2022-10-17T15:51:10;5.27;;;2.93;;
10295;SDS011;5193;51.032;6.356;2022-10-17T15:53:36;3.67;;;2.67;;
10295;SDS011;5193;51.032;6.356;2022-10-17T15:56:02;7.40;;;3.43;;
10295;SDS011;5193;51.032;6.356;2022-10-17T15:58:31;12.73;;;3.60;;
10295;SDS011;5193;51.032;6.356;2022-10-17T16:00:59;5.77;;;3.27;;
10295;SDS011;5193;51.032;6.356;2022-10-17T16:03:26;5.67;;;3.03;;
10295;SDS011;5193;51.032;6.356;2022-10-17T16:05:52;10.10;;;3.40;;
10295;SDS011;5193;51.032;6.356;2022-10-17T16:08:17;4.67;;;3.10;;
10295;SDS011;5193;51.032;6.356;2022-10-17T16:10:43;4.17;;;2.70;;
10295;SDS011;5193;51.032;6.356;2022-10-17T16:13:12;6.17;;;3.03;;
10295;SDS011;5193;51.032;6.356;2022-10-17T16:15:44;8.10;;;3.20;;
10295;SDS011;5193;51.032;6.356;2022-10-17T16:18:10;5.60;;;2.90;;
10295;SDS011;5193;51.032;6.356;2022-10-17T16:20:36;4.80;;;2.60;;
10295;SDS011;5193;51.032;6.356;2022-10-17T16:23:02;3.50;;;2.67;;
10295;SDS011;5193;51.032;6.356;2022-10-17T16:25:29;4.27;;;2.70;;
10295;SDS011;5193;51.032;6.356;2022-10-17T16:27:56;4.03;;;2.80;;
10295;SDS011;5193;51.032;6.356;2022-10-17T16:30:24;5.77;;;2.80;;
10295;SDS011;5193;51.032;6.356;2022-10-17T16:32:51;5.77;;;2.67;;
10295;SDS011;5193;51.032;6.356;2022-10-17T16:35:19;6.03;;;2.70;;
10295;SDS011;5193;51.032;6.356;2022-10-17T16:37:53;6.23;;;3.00;;
10295;SDS011;5193;51.032;6.356;2022-10-17T16:40:20;6.40;;;3.00;;
10295;SDS011;5193;51.032;6.356;2022-10-17T16:42:46;7.70;;;3.50;;
10295;SDS011;5193;51.032;6.356;2022-10-17T16:45:15;9.00;;;2.80;;
10295;SDS011;5193;51.032;6.356;2022-10-17T16:47:46;5.70;;;2.80;;
10295;SDS011;5193;51.032;6.356;2022-10-17T16:50:12;3.83;;;2.83;;
10295;SDS011;5193;51.032;6.356;2022-10-17T16:52:38;7.10;;;2.67;;
10295;SDS011;5193;51.032;6.356;2022-10-17T16:55:04;8.20;;;3.27;;
10295;SDS011;5193;51.032;6.356;2022-10-17T16:57:30;6.97;;;2.73;;
10295;SDS011;5193;51.032;6.356;2022-10-17T16:59:56;4.83;;;3.10;;
10295;SDS011;5193;51.032;6.356;2022-10-17T17:02:21;12.43;;;3.77;;
10295;SDS011;5193;51.032;6.356;2022-10-17T17:04:47;4.50;;;3.37;;